TRA1049 EHAM-ENVA
Flight info
| Callsign | TRA1049 |
|---|---|
| Flight time | 1h 46m |
| Altitude | 35000 |
| Route | ANDIK Z733 KONOM DCT GREFI DCT IPMOD DCT NELSU |
| Aircraft | A321/M-SDE3FGHIRWY/LB1 |
Departure
| Time | 2026-04-18 08:32 |
|---|---|
| Airport | Amsterdam Airport Schiphol (EHAM) |
Arrival
| Time | 2026-04-18 10:19 |
|---|---|
| Airport | Trondheim Airport, Værnes (ENVA) |
| Time | Latitude | Longitude | Altitude | Speed | Heading |
|---|---|---|---|---|---|
| 2026-04-18 08:23 | 52.30747 | 4.76900 | 0 ft | 0 kts | 51° |
| 2026-04-18 08:26 | 52.30738 | 4.76883 | 0 ft | 2 kts | 50° |
| 2026-04-18 08:26 | 52.30729 | 4.76863 | 0 ft | 2 kts | 66° |
| 2026-04-18 08:27 | 52.30724 | 4.76840 | 0 ft | 2 kts | 77° |
| 2026-04-18 08:27 | 52.30722 | 4.76816 | 0 ft | 2 kts | 90° |
| 2026-04-18 08:27 | 52.30724 | 4.76792 | 0 ft | 1 kts | 102° |
| 2026-04-18 08:27 | 52.30725 | 4.76781 | 0 ft | 1 kts | 107° |
| 2026-04-18 08:28 | 52.30726 | 4.76779 | 0 ft | 0 kts | 107° |
| 2026-04-18 08:29 | 52.30725 | 4.76780 | 0 ft | 0 kts | 107° |
| 2026-04-18 08:29 | 52.30721 | 4.76796 | 0 ft | 3 kts | 124° |
| 2026-04-18 08:30 | 52.30697 | 4.76830 | 0 ft | 6 kts | 144° |
| 2026-04-18 08:30 | 52.30664 | 4.76894 | 0 ft | 8 kts | 110° |
| 2026-04-18 08:30 | 52.30654 | 4.77009 | 0 ft | 11 kts | 94° |
| 2026-04-18 08:30 | 52.30649 | 4.77159 | 0 ft | 14 kts | 93° |
| 2026-04-18 08:31 | 52.30644 | 4.77329 | 0 ft | 15 kts | 92° |
| 2026-04-18 08:31 | 52.30614 | 4.77495 | 0 ft | 15 kts | 139° |
| 2026-04-18 08:31 | 52.30521 | 4.77587 | 0 ft | 16 kts | 151° |
| 2026-04-18 08:31 | 52.30418 | 4.77621 | 0 ft | 15 kts | 213° |
| 2026-04-18 08:32 | 52.30345 | 4.77463 | 0 ft | 28 kts | 237° |
| 2026-04-18 08:32 | 52.30088 | 4.76798 | 0 ft | 109 kts | 239° |
| 2026-04-18 08:32 | 52.29568 | 4.75443 | 76 ft | 164 kts | 237° |
| 2026-04-18 08:32 | 52.28943 | 4.73862 | 837 ft | 167 kts | 238° |
| 2026-04-18 08:33 | 52.28362 | 4.72345 | 1823 ft | 160 kts | 239° |
| 2026-04-18 08:33 | 52.27781 | 4.70821 | 2660 ft | 161 kts | 238° |
| 2026-04-18 08:33 | 52.27087 | 4.69449 | 3434 ft | 164 kts | 219° |
| 2026-04-18 08:33 | 52.26060 | 4.68712 | 4216 ft | 168 kts | 194° |
| 2026-04-18 08:34 | 52.24871 | 4.68715 | 4860 ft | 182 kts | 173° |
| 2026-04-18 08:34 | 52.23643 | 4.69556 | 5378 ft | 206 kts | 147° |
| 2026-04-18 08:34 | 52.22647 | 4.71364 | 5926 ft | 229 kts | 125° |
| 2026-04-18 08:34 | 52.21817 | 4.73683 | 6537 ft | 247 kts | 122° |
| 2026-04-18 08:35 | 52.20948 | 4.76200 | 7124 ft | 265 kts | 122° |
| 2026-04-18 08:35 | 52.20009 | 4.78894 | 7739 ft | 282 kts | 123° |
| 2026-04-18 08:35 | 52.19025 | 4.81695 | 8577 ft | 290 kts | 122° |
| 2026-04-18 08:35 | 52.18370 | 4.84809 | 9445 ft | 301 kts | 97° |
| 2026-04-18 08:36 | 52.18658 | 4.88166 | 10300 ft | 308 kts | 68° |
| 2026-04-18 08:36 | 52.19864 | 4.91039 | 10913 ft | 319 kts | 42° |
| 2026-04-18 08:36 | 52.21624 | 4.93384 | 11397 ft | 335 kts | 37° |
| 2026-04-18 08:36 | 52.23509 | 4.95775 | 12004 ft | 347 kts | 37° |
| 2026-04-18 08:37 | 52.25399 | 4.98229 | 12771 ft | 353 kts | 38° |
| 2026-04-18 08:37 | 52.27300 | 5.00765 | 13602 ft | 356 kts | 39° |
| 2026-04-18 08:37 | 52.29190 | 5.03328 | 14338 ft | 361 kts | 39° |
| 2026-04-18 08:37 | 52.31140 | 5.05990 | 15114 ft | 366 kts | 39° |
| 2026-04-18 08:38 | 52.33203 | 5.08411 | 15836 ft | 370 kts | 28° |
| 2026-04-18 08:38 | 52.35518 | 5.10156 | 16552 ft | 372 kts | 17° |
| 2026-04-18 08:38 | 52.37976 | 5.11340 | 17237 ft | 375 kts | 12° |
| 2026-04-18 08:38 | 52.40516 | 5.12412 | 17937 ft | 379 kts | 11° |
| 2026-04-18 08:39 | 52.43073 | 5.13478 | 18602 ft | 384 kts | 11° |
| 2026-04-18 08:39 | 52.45658 | 5.14572 | 19259 ft | 389 kts | 12° |
| 2026-04-18 08:39 | 52.48276 | 5.15698 | 19869 ft | 394 kts | 11° |
| 2026-04-18 08:39 | 52.50952 | 5.16864 | 20489 ft | 398 kts | 11° |
| 2026-04-18 08:40 | 52.53635 | 5.18041 | 21123 ft | 402 kts | 11° |
| 2026-04-18 08:40 | 52.56345 | 5.19235 | 21707 ft | 407 kts | 11° |
| 2026-04-18 08:40 | 52.59076 | 5.20439 | 22245 ft | 413 kts | 11° |
| 2026-04-18 08:40 | 52.61868 | 5.21674 | 22801 ft | 418 kts | 11° |
| 2026-04-18 08:41 | 52.64668 | 5.22915 | 23325 ft | 422 kts | 11° |
| 2026-04-18 08:41 | 52.67515 | 5.24179 | 23859 ft | 427 kts | 11° |
| 2026-04-18 08:41 | 52.70392 | 5.25456 | 24400 ft | 430 kts | 10° |
| 2026-04-18 08:41 | 52.73281 | 5.26673 | 24893 ft | 433 kts | 8° |
| 2026-04-18 08:42 | 52.76249 | 5.27630 | 25413 ft | 434 kts | 4° |
| 2026-04-18 08:42 | 52.79250 | 5.28402 | 25876 ft | 438 kts | 3° |
| 2026-04-18 08:42 | 52.82249 | 5.29119 | 26336 ft | 442 kts | 3° |
| 2026-04-18 08:42 | 52.85307 | 5.29853 | 26800 ft | 445 kts | 3° |
| 2026-04-18 08:43 | 52.88348 | 5.30599 | 27280 ft | 447 kts | 3° |
| 2026-04-18 08:43 | 52.91430 | 5.31355 | 27684 ft | 451 kts | 3° |
| 2026-04-18 08:43 | 52.94571 | 5.32131 | 28080 ft | 455 kts | 3° |
| 2026-04-18 08:43 | 52.97698 | 5.32907 | 28534 ft | 457 kts | 3° |
| 2026-04-18 08:44 | 53.00842 | 5.33694 | 28987 ft | 459 kts | 3° |
| 2026-04-18 08:44 | 53.03983 | 5.34478 | 29367 ft | 462 kts | 3° |
| 2026-04-18 08:44 | 53.07156 | 5.35270 | 29749 ft | 465 kts | 3° |
| 2026-04-18 08:44 | 53.10391 | 5.36079 | 30202 ft | 466 kts | 2° |
| 2026-04-18 08:45 | 53.13571 | 5.36879 | 30679 ft | 465 kts | 2° |
| 2026-04-18 08:45 | 53.16740 | 5.37676 | 31130 ft | 464 kts | 2° |
| 2026-04-18 08:45 | 53.19946 | 5.38481 | 31546 ft | 464 kts | 3° |
| 2026-04-18 08:45 | 53.23107 | 5.39275 | 31934 ft | 464 kts | 3° |
| 2026-04-18 08:46 | 53.26299 | 5.40077 | 32319 ft | 464 kts | 3° |
| 2026-04-18 08:46 | 53.29461 | 5.40878 | 32684 ft | 463 kts | 3° |
| 2026-04-18 08:46 | 53.32651 | 5.41687 | 33048 ft | 463 kts | 3° |
| 2026-04-18 08:46 | 53.35788 | 5.42480 | 33417 ft | 462 kts | 3° |
| 2026-04-18 08:47 | 53.38981 | 5.43292 | 33750 ft | 462 kts | 4° |
| 2026-04-18 08:47 | 53.42127 | 5.44091 | 34010 ft | 463 kts | 4° |
| 2026-04-18 08:47 | 53.45327 | 5.44906 | 34240 ft | 465 kts | 4° |
| 2026-04-18 08:47 | 53.48500 | 5.45713 | 34475 ft | 467 kts | 4° |
| 2026-04-18 08:48 | 53.51718 | 5.46539 | 34719 ft | 468 kts | 4° |
| 2026-04-18 08:48 | 53.54951 | 5.47370 | 34892 ft | 469 kts | 4° |
| 2026-04-18 08:48 | 53.58161 | 5.48194 | 35115 ft | 470 kts | 4° |
| 2026-04-18 08:49 | 53.64558 | 5.49836 | 35101 ft | 470 kts | 4° |
| 2026-04-18 08:49 | 53.71023 | 5.51497 | 35111 ft | 470 kts | 4° |
| 2026-04-18 08:50 | 53.77468 | 5.53161 | 35222 ft | 471 kts | 4° |
| 2026-04-18 08:50 | 53.80712 | 5.53999 | 35107 ft | 471 kts | 4° |
| 2026-04-18 08:50 | 53.83939 | 5.54837 | 35126 ft | 471 kts | 4° |
| 2026-04-18 08:51 | 53.90361 | 5.56507 | 35132 ft | 471 kts | 4° |
| 2026-04-18 08:51 | 53.96849 | 5.58199 | 35111 ft | 472 kts | 4° |
| 2026-04-18 08:52 | 54.03276 | 5.59882 | 35110 ft | 471 kts | 4° |
| 2026-04-18 08:52 | 54.09738 | 5.61582 | 35166 ft | 471 kts | 4° |
| 2026-04-18 08:53 | 54.16233 | 5.63291 | 35132 ft | 471 kts | 5° |
| 2026-04-18 08:53 | 54.22681 | 5.64996 | 35127 ft | 471 kts | 5° |
| 2026-04-18 08:54 | 54.29127 | 5.66702 | 35118 ft | 472 kts | 5° |
| 2026-04-18 08:54 | 54.35611 | 5.68430 | 35117 ft | 473 kts | 6° |
| 2026-04-18 08:55 | 54.42094 | 5.70158 | 35115 ft | 474 kts | 6° |
| 2026-04-18 08:55 | 54.48608 | 5.71903 | 35110 ft | 474 kts | 6° |
| 2026-04-18 08:56 | 54.55071 | 5.73641 | 35116 ft | 473 kts | 5° |
| 2026-04-18 08:56 | 54.61552 | 5.75387 | 35104 ft | 474 kts | 6° |
| 2026-04-18 08:57 | 54.71294 | 5.78021 | 35105 ft | 474 kts | 6° |
| 2026-04-18 08:57 | 54.77784 | 5.79785 | 35102 ft | 474 kts | 6° |
| 2026-04-18 08:58 | 54.84292 | 5.81560 | 35119 ft | 475 kts | 6° |
| 2026-04-18 08:58 | 54.90819 | 5.83346 | 35097 ft | 475 kts | 6° |
| 2026-04-18 08:59 | 54.97318 | 5.85131 | 35108 ft | 475 kts | 6° |
| 2026-04-18 08:59 | 55.03784 | 5.87496 | 35115 ft | 476 kts | 12° |
| 2026-04-18 09:00 | 55.10171 | 5.90390 | 35099 ft | 476 kts | 13° |
| 2026-04-18 09:00 | 55.16569 | 5.93329 | 35106 ft | 477 kts | 12° |
| 2026-04-18 09:01 | 55.22966 | 5.96251 | 35119 ft | 477 kts | 12° |
| 2026-04-18 09:01 | 55.29361 | 5.99173 | 35097 ft | 478 kts | 12° |
| 2026-04-18 09:02 | 55.35820 | 6.02130 | 35108 ft | 479 kts | 12° |
| 2026-04-18 09:02 | 55.42246 | 6.05081 | 35096 ft | 480 kts | 12° |
| 2026-04-18 09:03 | 55.48657 | 6.08037 | 35098 ft | 479 kts | 12° |
| 2026-04-18 09:03 | 55.55095 | 6.11015 | 35106 ft | 479 kts | 12° |
| 2026-04-18 09:04 | 55.61508 | 6.13991 | 35096 ft | 480 kts | 12° |
| 2026-04-18 09:04 | 55.67943 | 6.16988 | 35096 ft | 479 kts | 12° |
| 2026-04-18 09:05 | 55.74356 | 6.19985 | 35106 ft | 480 kts | 12° |
| 2026-04-18 09:05 | 55.80785 | 6.22997 | 35086 ft | 480 kts | 12° |
| 2026-04-18 09:06 | 55.87211 | 6.26021 | 35095 ft | 480 kts | 12° |
| 2026-04-18 09:06 | 55.93650 | 6.29062 | 35098 ft | 480 kts | 12° |
| 2026-04-18 09:07 | 56.00067 | 6.32100 | 35101 ft | 480 kts | 12° |
| 2026-04-18 09:07 | 56.06522 | 6.35170 | 35087 ft | 478 kts | 12° |
| 2026-04-18 09:08 | 56.12894 | 6.38206 | 35077 ft | 478 kts | 12° |
| 2026-04-18 09:08 | 56.19329 | 6.41287 | 35088 ft | 479 kts | 12° |
| 2026-04-18 09:09 | 56.25750 | 6.44372 | 35077 ft | 479 kts | 12° |
| 2026-04-18 09:09 | 56.32168 | 6.47465 | 35083 ft | 480 kts | 12° |
| 2026-04-18 09:10 | 56.38609 | 6.50578 | 35080 ft | 481 kts | 12° |
| 2026-04-18 09:10 | 56.45000 | 6.53678 | 35087 ft | 481 kts | 12° |
| 2026-04-18 09:11 | 56.51443 | 6.56819 | 35077 ft | 481 kts | 12° |
| 2026-04-18 09:11 | 56.57884 | 6.59968 | 35082 ft | 480 kts | 12° |
| 2026-04-18 09:12 | 56.64279 | 6.63103 | 35085 ft | 480 kts | 12° |
| 2026-04-18 09:12 | 56.70701 | 6.66264 | 35079 ft | 480 kts | 13° |
| 2026-04-18 09:13 | 56.77135 | 6.69442 | 35083 ft | 479 kts | 13° |
| 2026-04-18 09:13 | 56.83530 | 6.72612 | 35081 ft | 479 kts | 13° |
| 2026-04-18 09:14 | 56.89983 | 6.75823 | 35083 ft | 480 kts | 13° |
| 2026-04-18 09:14 | 56.96387 | 6.79016 | 35080 ft | 481 kts | 13° |
| 2026-04-18 09:15 | 57.02823 | 6.82241 | 35082 ft | 481 kts | 13° |
| 2026-04-18 09:15 | 57.09230 | 6.85467 | 35069 ft | 481 kts | 13° |
| 2026-04-18 09:16 | 57.15674 | 6.88720 | 35078 ft | 481 kts | 13° |
| 2026-04-18 09:16 | 57.22192 | 6.91542 | 35078 ft | 479 kts | 9° |
| 2026-04-18 09:17 | 57.28656 | 6.93932 | 35068 ft | 479 kts | 8° |
| 2026-04-18 09:17 | 57.35165 | 6.96384 | 35077 ft | 479 kts | 8° |
| 2026-04-18 09:18 | 57.41645 | 6.98878 | 35079 ft | 478 kts | 9° |
| 2026-04-18 09:18 | 57.48164 | 7.01410 | 35078 ft | 478 kts | 9° |
| 2026-04-18 09:19 | 57.54606 | 7.03926 | 35091 ft | 478 kts | 8° |
| 2026-04-18 09:19 | 57.61115 | 7.06473 | 35087 ft | 479 kts | 9° |
| 2026-04-18 09:20 | 57.67621 | 7.09035 | 35122 ft | 480 kts | 9° |
| 2026-04-18 09:20 | 57.74138 | 7.11615 | 35097 ft | 479 kts | 8° |
| 2026-04-18 09:21 | 57.80634 | 7.14192 | 35100 ft | 480 kts | 9° |
| 2026-04-18 09:21 | 57.87133 | 7.16777 | 35105 ft | 481 kts | 8° |
| 2026-04-18 09:22 | 57.93643 | 7.19380 | 35104 ft | 479 kts | 8° |
| 2026-04-18 09:22 | 58.00110 | 7.21973 | 35103 ft | 478 kts | 8° |
| 2026-04-18 09:23 | 58.06574 | 7.24570 | 35097 ft | 477 kts | 9° |
| 2026-04-18 09:23 | 58.13062 | 7.27192 | 35087 ft | 477 kts | 9° |
| 2026-04-18 09:24 | 58.19565 | 7.29826 | 35110 ft | 477 kts | 9° |
| 2026-04-18 09:24 | 58.26016 | 7.32453 | 35105 ft | 477 kts | 9° |
| 2026-04-18 09:25 | 58.32473 | 7.35091 | 35099 ft | 476 kts | 9° |
| 2026-04-18 09:25 | 58.38902 | 7.37729 | 35090 ft | 476 kts | 9° |
| 2026-04-18 09:26 | 58.45332 | 7.40376 | 35104 ft | 476 kts | 9° |
| 2026-04-18 09:26 | 58.51769 | 7.43035 | 35101 ft | 475 kts | 9° |
| 2026-04-18 09:27 | 58.58200 | 7.45702 | 35101 ft | 475 kts | 9° |
| 2026-04-18 09:27 | 58.64653 | 7.48387 | 35100 ft | 475 kts | 9° |
| 2026-04-18 09:28 | 58.71047 | 7.51058 | 35118 ft | 474 kts | 9° |
| 2026-04-18 09:28 | 58.77475 | 7.53753 | 35117 ft | 473 kts | 9° |
| 2026-04-18 09:29 | 58.83884 | 7.56454 | 35104 ft | 473 kts | 9° |
| 2026-04-18 09:29 | 58.90271 | 7.59150 | 35107 ft | 473 kts | 9° |
| 2026-04-18 09:30 | 58.96690 | 7.61872 | 35106 ft | 474 kts | 9° |
| 2026-04-18 09:30 | 59.03092 | 7.64600 | 35095 ft | 474 kts | 9° |
| 2026-04-18 09:31 | 59.09541 | 7.67355 | 35103 ft | 473 kts | 10° |
| 2026-04-18 09:31 | 59.15932 | 7.70099 | 35092 ft | 472 kts | 10° |
| 2026-04-18 09:32 | 59.22343 | 7.72860 | 35096 ft | 473 kts | 10° |
| 2026-04-18 09:32 | 59.28737 | 7.75624 | 35086 ft | 473 kts | 10° |
| 2026-04-18 09:33 | 59.35118 | 7.78394 | 35086 ft | 472 kts | 10° |
| 2026-04-18 09:33 | 59.41484 | 7.81165 | 35084 ft | 472 kts | 10° |
| 2026-04-18 09:34 | 59.47858 | 7.83951 | 35094 ft | 472 kts | 11° |
| 2026-04-18 09:34 | 59.54243 | 7.86755 | 35094 ft | 472 kts | 11° |
| 2026-04-18 09:35 | 59.60642 | 7.89579 | 35095 ft | 472 kts | 11° |
| 2026-04-18 09:35 | 59.67024 | 7.92404 | 35093 ft | 472 kts | 10° |
| 2026-04-18 09:36 | 59.73402 | 7.95236 | 35078 ft | 472 kts | 11° |
| 2026-04-18 09:36 | 59.79751 | 7.98068 | 35075 ft | 471 kts | 10° |
| 2026-04-18 09:37 | 59.86118 | 8.00919 | 35068 ft | 471 kts | 11° |
| 2026-04-18 09:37 | 59.92468 | 8.03773 | 35064 ft | 470 kts | 11° |
| 2026-04-18 09:38 | 59.98803 | 8.06630 | 35057 ft | 469 kts | 11° |
| 2026-04-18 09:38 | 60.05148 | 8.09505 | 35051 ft | 469 kts | 11° |
| 2026-04-18 09:39 | 60.11470 | 8.12380 | 35048 ft | 470 kts | 11° |
| 2026-04-18 09:39 | 60.17865 | 8.15302 | 35060 ft | 469 kts | 11° |
| 2026-04-18 09:40 | 60.24197 | 8.18206 | 35049 ft | 469 kts | 11° |
| 2026-04-18 09:40 | 60.30523 | 8.21118 | 35043 ft | 468 kts | 11° |
| 2026-04-18 09:41 | 60.36825 | 8.24029 | 35051 ft | 468 kts | 11° |
| 2026-04-18 09:41 | 60.43176 | 8.26973 | 35059 ft | 467 kts | 11° |
| 2026-04-18 09:42 | 60.49462 | 8.29903 | 35063 ft | 466 kts | 11° |
| 2026-04-18 09:42 | 60.55747 | 8.32841 | 35059 ft | 465 kts | 11° |
| 2026-04-18 09:43 | 60.62030 | 8.35792 | 35066 ft | 465 kts | 11° |
| 2026-04-18 09:43 | 60.68310 | 8.38753 | 35063 ft | 466 kts | 11° |
| 2026-04-18 09:44 | 60.74601 | 8.41731 | 35068 ft | 466 kts | 11° |
| 2026-04-18 09:44 | 60.80887 | 8.44719 | 35064 ft | 465 kts | 11° |
| 2026-04-18 09:45 | 60.87136 | 8.47699 | 35044 ft | 465 kts | 11° |
| 2026-04-18 09:45 | 60.93429 | 8.50712 | 35045 ft | 465 kts | 11° |
| 2026-04-18 09:46 | 60.99707 | 8.53733 | 35029 ft | 465 kts | 11° |
| 2026-04-18 09:46 | 61.05954 | 8.56749 | 35035 ft | 463 kts | 11° |
| 2026-04-18 09:47 | 61.12163 | 8.59759 | 35036 ft | 462 kts | 11° |
| 2026-04-18 09:47 | 61.18428 | 8.62810 | 35041 ft | 462 kts | 11° |
| 2026-04-18 09:48 | 61.24664 | 8.65857 | 35047 ft | 462 kts | 12° |
| 2026-04-18 09:48 | 61.30922 | 8.68930 | 35048 ft | 463 kts | 12° |
| 2026-04-18 09:49 | 61.37149 | 8.71998 | 35053 ft | 463 kts | 13° |
| 2026-04-18 09:49 | 61.43396 | 8.75090 | 35056 ft | 463 kts | 13° |
| 2026-04-18 09:50 | 61.49628 | 8.78187 | 35052 ft | 463 kts | 13° |
| 2026-04-18 09:50 | 61.55836 | 8.81286 | 35048 ft | 462 kts | 13° |
| 2026-04-18 09:51 | 61.62060 | 8.84403 | 35037 ft | 462 kts | 13° |
| 2026-04-18 09:51 | 61.68278 | 8.87531 | 35041 ft | 460 kts | 13° |
| 2026-04-18 09:52 | 61.74459 | 8.90655 | 35034 ft | 460 kts | 13° |
| 2026-04-18 09:52 | 61.80686 | 8.93815 | 34879 ft | 460 kts | 13° |
| 2026-04-18 09:53 | 61.83757 | 8.95377 | 34683 ft | 458 kts | 13° |
| 2026-04-18 09:53 | 61.86834 | 8.96947 | 34493 ft | 456 kts | 13° |
| 2026-04-18 09:53 | 61.89889 | 8.98508 | 34304 ft | 454 kts | 13° |
| 2026-04-18 09:53 | 61.92964 | 9.00084 | 34108 ft | 451 kts | 13° |
| 2026-04-18 09:54 | 61.95972 | 9.01627 | 33911 ft | 449 kts | 13° |
| 2026-04-18 09:54 | 61.98982 | 9.03174 | 33656 ft | 449 kts | 13° |
| 2026-04-18 09:54 | 62.01997 | 9.04730 | 33251 ft | 450 kts | 13° |
| 2026-04-18 09:54 | 62.05045 | 9.06305 | 32616 ft | 452 kts | 13° |
| 2026-04-18 09:55 | 62.08067 | 9.07869 | 31902 ft | 455 kts | 13° |
| 2026-04-18 09:55 | 62.11136 | 9.09461 | 31157 ft | 458 kts | 13° |
| 2026-04-18 09:55 | 62.14251 | 9.11079 | 30431 ft | 458 kts | 13° |
| 2026-04-18 09:55 | 62.17316 | 9.12676 | 29961 ft | 452 kts | 13° |
| 2026-04-18 09:56 | 62.20337 | 9.14251 | 29508 ft | 446 kts | 13° |
| 2026-04-18 09:56 | 62.23288 | 9.15793 | 29063 ft | 441 kts | 13° |
| 2026-04-18 09:56 | 62.26247 | 9.17342 | 28594 ft | 436 kts | 13° |
| 2026-04-18 09:56 | 62.29152 | 9.18868 | 28128 ft | 432 kts | 13° |
| 2026-04-18 09:57 | 62.32061 | 9.20396 | 27667 ft | 428 kts | 13° |
| 2026-04-18 09:57 | 62.34906 | 9.21897 | 27210 ft | 424 kts | 13° |
| 2026-04-18 09:57 | 62.37757 | 9.23406 | 26740 ft | 421 kts | 13° |
| 2026-04-18 09:57 | 62.40574 | 9.24896 | 26271 ft | 417 kts | 13° |
| 2026-04-18 09:58 | 62.43364 | 9.26373 | 25809 ft | 414 kts | 13° |
| 2026-04-18 09:58 | 62.46145 | 9.27850 | 25359 ft | 410 kts | 13° |
| 2026-04-18 09:58 | 62.48895 | 9.29314 | 24908 ft | 407 kts | 13° |
| 2026-04-18 09:58 | 62.51615 | 9.30765 | 24458 ft | 404 kts | 13° |
| 2026-04-18 09:59 | 62.54319 | 9.32210 | 23990 ft | 402 kts | 13° |
| 2026-04-18 09:59 | 62.57014 | 9.33652 | 23542 ft | 399 kts | 13° |
| 2026-04-18 09:59 | 62.59707 | 9.35094 | 23097 ft | 396 kts | 13° |
| 2026-04-18 10:00 | 62.64964 | 9.37922 | 22242 ft | 391 kts | 13° |
| 2026-04-18 10:00 | 62.67602 | 9.39343 | 21813 ft | 388 kts | 13° |
| 2026-04-18 10:00 | 62.70193 | 9.40742 | 21384 ft | 385 kts | 13° |
| 2026-04-18 10:00 | 62.72772 | 9.42136 | 20943 ft | 383 kts | 13° |
| 2026-04-18 10:01 | 62.75327 | 9.43521 | 20515 ft | 380 kts | 13° |
| 2026-04-18 10:01 | 62.77879 | 9.44909 | 20094 ft | 378 kts | 13° |
| 2026-04-18 10:01 | 62.80414 | 9.46289 | 19670 ft | 375 kts | 13° |
| 2026-04-18 10:01 | 62.82916 | 9.47654 | 19237 ft | 372 kts | 13° |
| 2026-04-18 10:02 | 62.85399 | 9.49011 | 18798 ft | 370 kts | 13° |
| 2026-04-18 10:02 | 62.87889 | 9.50373 | 18367 ft | 368 kts | 13° |
| 2026-04-18 10:02 | 62.90351 | 9.51721 | 17941 ft | 365 kts | 13° |
| 2026-04-18 10:02 | 62.92781 | 9.53055 | 17509 ft | 363 kts | 13° |
| 2026-04-18 10:03 | 62.95227 | 9.54400 | 17073 ft | 362 kts | 13° |
| 2026-04-18 10:03 | 62.97637 | 9.55727 | 16650 ft | 359 kts | 13° |
| 2026-04-18 10:03 | 63.00053 | 9.57061 | 16222 ft | 357 kts | 13° |
| 2026-04-18 10:03 | 63.02460 | 9.58390 | 15791 ft | 355 kts | 13° |
| 2026-04-18 10:04 | 63.04838 | 9.59712 | 15367 ft | 352 kts | 13° |
| 2026-04-18 10:04 | 63.07171 | 9.61100 | 14922 ft | 350 kts | 19° |
| 2026-04-18 10:04 | 63.09199 | 9.63891 | 14465 ft | 347 kts | 45° |
| 2026-04-18 10:04 | 63.10460 | 9.68164 | 14040 ft | 342 kts | 70° |
| 2026-04-18 10:05 | 63.10863 | 9.73444 | 13599 ft | 336 kts | 92° |
| 2026-04-18 10:05 | 63.10744 | 9.78548 | 13204 ft | 334 kts | 95° |
| 2026-04-18 10:05 | 63.10603 | 9.83621 | 12789 ft | 331 kts | 95° |
| 2026-04-18 10:05 | 63.10477 | 9.88628 | 12386 ft | 330 kts | 94° |
| 2026-04-18 10:06 | 63.10366 | 9.93684 | 11964 ft | 328 kts | 94° |
| 2026-04-18 10:06 | 63.10265 | 9.98704 | 11546 ft | 326 kts | 93° |
| 2026-04-18 10:06 | 63.10169 | 10.03629 | 11146 ft | 324 kts | 93° |
| 2026-04-18 10:06 | 63.10186 | 10.08605 | 10692 ft | 323 kts | 81° |
| 2026-04-18 10:07 | 63.11059 | 10.13040 | 10339 ft | 317 kts | 50° |
| 2026-04-18 10:07 | 63.12701 | 10.16004 | 10228 ft | 302 kts | 29° |
| 2026-04-18 10:07 | 63.14498 | 10.18167 | 10118 ft | 289 kts | 27° |
| 2026-04-18 10:07 | 63.16237 | 10.20244 | 9881 ft | 284 kts | 28° |
| 2026-04-18 10:08 | 63.17974 | 10.22375 | 9511 ft | 283 kts | 29° |
| 2026-04-18 10:08 | 63.19669 | 10.24504 | 9210 ft | 279 kts | 30° |
| 2026-04-18 10:08 | 63.21091 | 10.26314 | 9084 ft | 269 kts | 30° |
| 2026-04-18 10:08 | 63.22310 | 10.27867 | 9026 ft | 259 kts | 28° |
| 2026-04-18 10:09 | 63.23970 | 10.29018 | 8877 ft | 249 kts | 357° |
| 2026-04-18 10:09 | 63.25581 | 10.27914 | 8619 ft | 246 kts | 322° |
| 2026-04-18 10:09 | 63.26780 | 10.25225 | 8317 ft | 243 kts | 308° |
| 2026-04-18 10:09 | 63.27870 | 10.22372 | 8016 ft | 243 kts | 309° |
| 2026-04-18 10:10 | 63.29010 | 10.19640 | 7714 ft | 243 kts | 318° |
| 2026-04-18 10:10 | 63.30418 | 10.17639 | 7408 ft | 244 kts | 333° |
| 2026-04-18 10:10 | 63.31971 | 10.16141 | 7120 ft | 242 kts | 336° |
| 2026-04-18 10:10 | 63.33553 | 10.14987 | 6887 ft | 237 kts | 354° |
| 2026-04-18 10:11 | 63.35123 | 10.15668 | 6639 ft | 231 kts | 30° |
| 2026-04-18 10:11 | 63.36258 | 10.18087 | 6346 ft | 226 kts | 62° |
| 2026-04-18 10:11 | 63.36709 | 10.21326 | 6119 ft | 218 kts | 82° |
| 2026-04-18 10:11 | 63.36930 | 10.24614 | 5921 ft | 212 kts | 83° |
| 2026-04-18 10:12 | 63.37149 | 10.27828 | 5682 ft | 209 kts | 83° |
| 2026-04-18 10:12 | 63.37377 | 10.30941 | 5511 ft | 200 kts | 83° |
| 2026-04-18 10:12 | 63.37603 | 10.33947 | 5205 ft | 195 kts | 83° |
| 2026-04-18 10:12 | 63.37828 | 10.36869 | 4909 ft | 190 kts | 83° |
| 2026-04-18 10:13 | 63.38048 | 10.39732 | 4647 ft | 186 kts | 83° |
| 2026-04-18 10:13 | 63.38264 | 10.42556 | 4390 ft | 186 kts | 83° |
| 2026-04-18 10:13 | 63.38483 | 10.45388 | 4170 ft | 183 kts | 84° |
| 2026-04-18 10:13 | 63.38828 | 10.48011 | 3972 ft | 177 kts | 64° |
| 2026-04-18 10:14 | 63.39724 | 10.49963 | 3879 ft | 186 kts | 33° |
| 2026-04-18 10:14 | 63.40917 | 10.51081 | 3659 ft | 187 kts | 23° |
| 2026-04-18 10:14 | 63.42143 | 10.52028 | 3438 ft | 184 kts | 22° |
| 2026-04-18 10:14 | 63.43330 | 10.52932 | 3248 ft | 180 kts | 22° |
| 2026-04-18 10:15 | 63.44505 | 10.53855 | 3082 ft | 179 kts | 23° |
| 2026-04-18 10:15 | 63.45514 | 10.55311 | 2977 ft | 170 kts | 57° |
| 2026-04-18 10:15 | 63.45863 | 10.57702 | 2797 ft | 162 kts | 89° |
| 2026-04-18 10:15 | 63.45896 | 10.60143 | 2571 ft | 156 kts | 94° |
| 2026-04-18 10:16 | 63.45881 | 10.62486 | 2337 ft | 144 kts | 94° |
| 2026-04-18 10:16 | 63.45861 | 10.64702 | 2135 ft | 143 kts | 94° |
| 2026-04-18 10:16 | 63.45845 | 10.66923 | 1950 ft | 142 kts | 95° |
| 2026-04-18 10:16 | 63.45832 | 10.69150 | 1759 ft | 142 kts | 94° |
| 2026-04-18 10:17 | 63.45823 | 10.71355 | 1579 ft | 142 kts | 94° |
| 2026-04-18 10:17 | 63.45815 | 10.73567 | 1394 ft | 142 kts | 94° |
| 2026-04-18 10:17 | 63.45808 | 10.75740 | 1211 ft | 142 kts | 94° |
| 2026-04-18 10:17 | 63.45801 | 10.77960 | 1021 ft | 141 kts | 94° |
| 2026-04-18 10:18 | 63.45795 | 10.80144 | 833 ft | 141 kts | 94° |
| 2026-04-18 10:18 | 63.45789 | 10.82317 | 644 ft | 141 kts | 94° |
| 2026-04-18 10:18 | 63.45779 | 10.84473 | 451 ft | 141 kts | 95° |
| 2026-04-18 10:18 | 63.45768 | 10.86665 | 285 ft | 140 kts | 93° |
| 2026-04-18 10:19 | 63.45773 | 10.88780 | 79 ft | 130 kts | 95° |
| 2026-04-18 10:19 | 63.45754 | 10.90551 | 27 ft | 83 kts | 95° |
| 2026-04-18 10:19 | 63.45760 | 10.91190 | 34 ft | 11 kts | 89° |
| 2026-04-18 10:19 | 63.45760 | 10.91385 | 36 ft | 15 kts | 94° |
| 2026-04-18 10:20 | 63.45688 | 10.91518 | 37 ft | 14 kts | 177° |
| 2026-04-18 10:20 | 63.45589 | 10.91490 | 37 ft | 14 kts | 194° |
| 2026-04-18 10:20 | 63.45549 | 10.91483 | 37 ft | 6 kts | 181° |
| 2026-04-18 10:20 | 63.45499 | 10.91483 | 36 ft | 0 kts | 179° |